createdAt,value
2022-08-26T00:00:51.654Z,16.10
2022-08-26T00:03:19.108Z,15.37
2022-08-26T00:05:46.222Z,16.00
2022-08-26T00:08:14.085Z,15.77
2022-08-26T00:10:41.370Z,17.10
2022-08-26T00:13:10.271Z,14.43
2022-08-26T00:15:38.118Z,15.13
2022-08-26T00:18:04.860Z,14.80
2022-08-26T00:20:48.259Z,14.67
2022-08-26T00:23:15.071Z,16.27
2022-08-26T00:25:42.785Z,16.10
2022-08-26T00:28:10.819Z,16.27
2022-08-26T00:30:37.828Z,15.97
2022-08-26T00:33:06.052Z,17.10
2022-08-26T00:35:34.836Z,15.23
2022-08-26T00:38:03.449Z,15.33
2022-08-26T00:40:35.446Z,14.97
2022-08-26T00:43:02.509Z,16.80
2022-08-26T00:45:43.433Z,14.23
2022-08-26T00:48:10.407Z,15.37
2022-08-26T00:50:39.394Z,15.90
2022-08-26T00:53:21.509Z,14.37
2022-08-26T00:55:54.955Z,14.77
2022-08-26T00:58:24.108Z,15.70
2022-08-26T01:00:51.691Z,14.90
2022-08-26T01:03:22.028Z,15.63
2022-08-26T01:05:49.849Z,14.80
2022-08-26T01:08:18.070Z,14.03
2022-08-26T01:10:44.664Z,13.90
2022-08-26T01:13:11.400Z,14.57
2022-08-26T01:15:42.866Z,15.53
2022-08-26T01:18:09.475Z,15.20
2022-08-26T01:20:57.581Z,15.23
2022-08-26T01:23:26.214Z,14.70
2022-08-26T01:25:54.858Z,13.90
2022-08-26T01:28:29.246Z,14.50
2022-08-26T01:30:57.439Z,13.40
2022-08-26T01:33:29.523Z,14.90
2022-08-26T01:35:56.280Z,18.03
2022-08-26T01:38:23.737Z,14.40
2022-08-26T01:40:51.354Z,13.80
2022-08-26T01:43:23.246Z,15.40
2022-08-26T01:45:50.503Z,14.63
2022-08-26T01:48:19.599Z,14.80
2022-08-26T01:50:46.536Z,15.57
2022-08-26T01:53:16.359Z,15.43
2022-08-26T01:55:44.410Z,14.77
2022-08-26T01:58:15.240Z,15.43
2022-08-26T02:00:41.863Z,14.50
2022-08-26T02:03:17.388Z,16.73
2022-08-26T02:05:51.493Z,15.83
2022-08-26T02:08:24.903Z,15.37
2022-08-26T02:10:54.654Z,13.80
2022-08-26T02:13:21.547Z,14.90
2022-08-26T02:15:49.352Z,16.03
2022-08-26T02:18:16.566Z,14.37
2022-08-26T02:20:43.118Z,14.90
2022-08-26T02:23:09.737Z,15.40
2022-08-26T02:25:44.654Z,14.60
2022-08-26T02:28:12.410Z,14.10
2022-08-26T02:30:40.442Z,16.03
2022-08-26T02:33:07.255Z,17.07
2022-08-26T02:35:35.523Z,17.63
2022-08-26T02:38:02.642Z,18.00
2022-08-26T02:40:39.263Z,17.13
2022-08-26T02:43:08.448Z,16.77
2022-08-26T02:45:35.849Z,15.60
2022-08-26T02:48:09.213Z,14.53
2022-08-26T02:50:37.321Z,15.87
2022-08-26T02:53:04.723Z,14.87
2022-08-26T02:55:32.601Z,14.37
2022-08-26T02:58:01.200Z,14.37
2022-08-26T03:00:28.474Z,14.20
2022-08-26T03:02:55.249Z,13.80
2022-08-26T03:05:22.231Z,15.27
2022-08-26T03:07:50.890Z,15.20
2022-08-26T03:10:17.643Z,15.17
2022-08-26T03:12:47.355Z,13.93
2022-08-26T03:15:17.807Z,14.90
2022-08-26T03:17:45.810Z,14.73
2022-08-26T03:20:13.644Z,13.93
2022-08-26T03:22:42.328Z,15.10
2022-08-26T03:25:09.618Z,14.63
2022-08-26T03:27:36.280Z,15.07
2022-08-26T03:30:22.129Z,16.20
2022-08-26T03:32:48.637Z,15.43
2022-08-26T03:35:15.161Z,16.50
2022-08-26T03:37:41.701Z,15.77
2022-08-26T03:40:10.390Z,16.43
2022-08-26T03:42:38.930Z,17.50
2022-08-26T03:45:07.507Z,14.97
2022-08-26T03:47:34.104Z,15.60
2022-08-26T03:50:00.733Z,15.17
2022-08-26T03:52:27.323Z,14.93
2022-08-26T03:54:53.829Z,13.77
2022-08-26T03:57:20.781Z,13.93
2022-08-26T03:59:49.277Z,15.20
2022-08-26T04:02:16.005Z,15.77
2022-08-26T04:04:43.380Z,16.97
2022-08-26T04:07:09.973Z,15.60
2022-08-26T04:09:36.670Z,15.77
2022-08-26T04:12:04.516Z,14.77
2022-08-26T04:14:32.267Z,15.83
2022-08-26T04:16:59.115Z,14.73
2022-08-26T04:19:25.697Z,16.17
2022-08-26T04:21:53.033Z,15.67
2022-08-26T04:24:20.897Z,14.13
2022-08-26T04:26:48.394Z,14.67
2022-08-26T04:29:19.595Z,15.33
2022-08-26T04:31:55.337Z,14.30
2022-08-26T04:34:28.712Z,14.10
2022-08-26T04:36:56.079Z,15.10
2022-08-26T04:39:22.670Z,16.00
2022-08-26T04:41:50.195Z,15.50
2022-08-26T04:44:17.777Z,14.83
2022-08-26T04:46:44.481Z,14.50
2022-08-26T04:49:11.483Z,15.80
2022-08-26T04:51:38.461Z,14.37
2022-08-26T04:54:06.940Z,14.67
2022-08-26T04:56:35.026Z,14.70
2022-08-26T04:59:02.951Z,14.97
2022-08-26T05:01:31.543Z,13.23
2022-08-26T05:03:58.908Z,16.07
2022-08-26T05:06:26.001Z,15.13
2022-08-26T05:08:53.110Z,13.93
2022-08-26T05:11:21.021Z,15.00
2022-08-26T05:13:49.108Z,14.47
2022-08-26T05:16:16.507Z,15.47
2022-08-26T05:18:45.686Z,14.47
2022-08-26T05:21:16.922Z,14.20
2022-08-26T05:23:43.657Z,17.47
2022-08-26T05:26:11.166Z,17.33
2022-08-26T05:28:37.800Z,16.57
2022-08-26T05:31:18.768Z,16.50
2022-08-26T05:33:46.640Z,16.50
2022-08-26T05:36:15.302Z,16.70
2022-08-26T05:38:42.361Z,18.80
2022-08-26T05:41:15.006Z,17.40
2022-08-26T05:43:43.557Z,16.40
2022-08-26T05:46:10.787Z,14.87
2022-08-26T05:48:37.945Z,14.03
2022-08-26T05:51:06.226Z,14.30
2022-08-26T05:53:33.181Z,16.13
2022-08-26T05:56:01.074Z,14.00
2022-08-26T05:58:27.906Z,13.97
2022-08-26T06:01:02.320Z,13.30
2022-08-26T06:03:29.723Z,12.60
2022-08-26T06:05:56.789Z,15.97
2022-08-26T06:08:24.077Z,14.47
2022-08-26T06:10:53.285Z,16.30
2022-08-26T06:13:26.735Z,18.53
2022-08-26T06:15:54.077Z,18.47
2022-08-26T06:18:22.967Z,18.20
2022-08-26T06:20:57.725Z,18.50
2022-08-26T06:23:44.020Z,20.10
2022-08-26T06:26:11.253Z,16.40
2022-08-26T06:28:37.869Z,18.47
2022-08-26T06:31:06.155Z,19.03
2022-08-26T06:33:33.363Z,17.70
2022-08-26T06:36:01.137Z,18.40
2022-08-26T06:38:28.532Z,19.37
2022-08-26T06:40:55.048Z,19.00
2022-08-26T06:43:23.779Z,20.60
2022-08-26T06:45:51.882Z,19.03
2022-08-26T06:48:19.830Z,17.93
2022-08-26T06:50:46.683Z,17.43
2022-08-26T06:53:17.085Z,19.20
2022-08-26T06:55:46.060Z,18.30
2022-08-26T06:58:13.846Z,16.60
2022-08-26T07:00:40.480Z,17.67
2022-08-26T07:03:13.750Z,17.50
2022-08-26T07:05:40.760Z,15.83
2022-08-26T07:08:07.316Z,15.10
2022-08-26T07:10:35.787Z,15.67
2022-08-26T07:13:02.681Z,15.47
2022-08-26T07:15:31.514Z,17.27
2022-08-26T07:17:58.239Z,16.10
2022-08-26T07:20:24.815Z,17.90
2022-08-26T07:22:51.579Z,17.37
2022-08-26T07:25:19.166Z,15.77
2022-08-26T07:27:46.413Z,16.60
2022-08-26T07:30:20.654Z,13.77
2022-08-26T07:32:47.481Z,14.57
2022-08-26T07:35:14.689Z,14.40
2022-08-26T07:37:42.317Z,15.83
2022-08-26T07:40:09.427Z,17.10
2022-08-26T07:42:35.999Z,14.70
2022-08-26T07:45:02.534Z,17.00
2022-08-26T07:47:29.261Z,16.67
2022-08-26T07:49:56.476Z,14.77
2022-08-26T07:52:26.741Z,15.63
2022-08-26T07:54:54.139Z,14.27
2022-08-26T07:57:20.997Z,15.33
2022-08-26T07:59:47.507Z,13.67
2022-08-26T08:02:13.998Z,14.23
2022-08-26T08:04:40.583Z,15.87
2022-08-26T08:07:10.579Z,13.60
2022-08-26T08:09:38.492Z,15.87
2022-08-26T08:12:07.697Z,12.70
2022-08-26T08:14:36.461Z,13.67
2022-08-26T08:17:03.937Z,14.03
2022-08-26T08:19:37.024Z,14.43
2022-08-26T08:22:17.068Z,13.00
2022-08-26T08:24:44.787Z,12.57
2022-08-26T08:27:11.439Z,12.97
2022-08-26T08:29:38.627Z,13.33
2022-08-26T08:32:05.600Z,12.00
2022-08-26T08:34:38.369Z,13.70
2022-08-26T08:37:08.652Z,12.00
2022-08-26T08:39:37.176Z,13.37
2022-08-26T08:42:23.619Z,12.77
2022-08-26T08:44:52.782Z,12.90
2022-08-26T08:47:50.224Z,11.70
2022-08-26T08:50:17.119Z,13.73
2022-08-26T08:52:46.388Z,12.93
2022-08-26T08:55:17.399Z,12.60
2022-08-26T08:58:02.285Z,12.63
2022-08-26T09:00:35.584Z,12.57
2022-08-26T09:03:10.782Z,11.97
2022-08-26T09:05:45.442Z,11.47
2022-08-26T09:08:19.921Z,11.73
2022-08-26T09:10:52.823Z,11.40
2022-08-26T09:13:25.328Z,11.53
2022-08-26T09:16:07.497Z,12.90
2022-08-26T09:18:52.705Z,11.23
2022-08-26T09:21:19.932Z,12.93
2022-08-26T09:23:49.637Z,11.40
2022-08-26T09:26:16.354Z,11.10
2022-08-26T09:28:45.576Z,11.10
2022-08-26T09:31:14.563Z,11.03
2022-08-26T09:33:41.661Z,12.40
2022-08-26T09:36:15.937Z,12.03
2022-08-26T09:38:43.201Z,11.90
2022-08-26T09:41:20.868Z,11.03
2022-08-26T09:44:06.675Z,11.60
2022-08-26T09:46:33.494Z,10.60
2022-08-26T09:49:18.717Z,10.40
2022-08-26T09:51:50.147Z,11.00
2022-08-26T09:54:30.439Z,10.90
2022-08-26T09:57:19.035Z,10.47
2022-08-26T09:59:45.912Z,11.43
2022-08-26T10:02:17.403Z,11.00
2022-08-26T10:05:09.193Z,10.90
2022-08-26T10:07:44.835Z,10.03
2022-08-26T10:10:16.909Z,8.43
2022-08-26T10:12:47.678Z,11.10
2022-08-26T10:15:14.405Z,10.13
2022-08-26T10:17:46.229Z,9.93
2022-08-26T10:20:23.533Z,10.90
2022-08-26T10:22:50.370Z,11.00
2022-08-26T10:25:21.758Z,10.83
2022-08-26T10:27:51.172Z,10.83
2022-08-26T10:30:21.473Z,10.80
2022-08-26T10:33:08.675Z,10.10
2022-08-26T10:35:36.549Z,10.70
2022-08-26T10:38:11.860Z,11.30
2022-08-26T10:40:39.463Z,10.07
2022-08-26T10:43:10.971Z,9.50
2022-08-26T10:45:48.888Z,11.70
2022-08-26T10:48:37.219Z,11.03
2022-08-26T10:51:04.724Z,11.43
2022-08-26T10:53:32.681Z,10.50
2022-08-26T10:56:06.057Z,11.70
2022-08-26T10:59:01.758Z,9.70
2022-08-26T11:01:51.152Z,10.03
2022-08-26T11:04:19.137Z,10.00
2022-08-26T11:06:49.283Z,10.70
2022-08-26T11:09:34.738Z,11.57
2022-08-26T11:12:09.988Z,11.80
2022-08-26T11:14:44.627Z,11.63
2022-08-26T11:17:40.286Z,11.27
2022-08-26T11:20:13.261Z,11.00
2022-08-26T11:22:47.598Z,10.63
2022-08-26T11:25:24.386Z,11.33
2022-08-26T11:27:56.656Z,11.23
2022-08-26T11:30:24.168Z,10.20
2022-08-26T11:32:55.393Z,10.47
2022-08-26T11:35:23.353Z,11.60
2022-08-26T11:38:01.547Z,10.30
2022-08-26T11:40:38.686Z,10.20
2022-08-26T11:43:07.323Z,11.53
2022-08-26T11:45:38.404Z,10.13
2022-08-26T11:48:19.373Z,11.10
2022-08-26T11:50:53.870Z,10.93
2022-08-26T11:53:20.553Z,10.30
2022-08-26T11:55:51.460Z,10.53
2022-08-26T11:58:20.684Z,10.00
2022-08-26T12:00:54.195Z,8.73
2022-08-26T12:03:24.857Z,9.60
2022-08-26T12:05:52.348Z,8.97
2022-08-26T12:08:21.701Z,9.40
2022-08-26T12:10:49.028Z,7.97
2022-08-26T12:13:23.588Z,8.23
2022-08-26T12:15:55.770Z,7.13
2022-08-26T12:18:29.477Z,8.23
2022-08-26T12:20:58.548Z,9.90
2022-08-26T12:23:37.388Z,9.10
2022-08-26T12:26:10.377Z,7.70
2022-08-26T12:28:44.705Z,8.40
2022-08-26T12:31:12.016Z,8.33
2022-08-26T12:33:38.682Z,7.83
2022-08-26T12:36:06.019Z,7.47
2022-08-26T12:38:35.183Z,7.57
2022-08-26T12:41:01.736Z,6.67
2022-08-26T12:43:37.117Z,8.70
2022-08-26T12:46:04.693Z,7.60
2022-08-26T12:48:35.972Z,9.03
2022-08-26T12:51:12.980Z,7.37
2022-08-26T12:53:42.600Z,8.60
2022-08-26T12:56:24.421Z,8.33
2022-08-26T12:59:01.532Z,9.20
2022-08-26T13:01:36.472Z,7.80
2022-08-26T13:04:03.281Z,8.23
2022-08-26T13:06:29.998Z,9.30
2022-08-26T13:08:56.565Z,8.10
2022-08-26T13:11:55.195Z,9.17
2022-08-26T13:14:24.116Z,10.57
2022-08-26T13:16:51.743Z,9.90
2022-08-26T13:19:19.641Z,8.53
2022-08-26T13:21:47.792Z,10.30
2022-08-26T13:24:15.769Z,9.30
2022-08-26T13:26:43.857Z,8.93
2022-08-26T13:29:10.722Z,8.73
2022-08-26T13:31:38.663Z,8.57
2022-08-26T13:34:05.286Z,7.50
2022-08-26T13:36:31.808Z,7.77
2022-08-26T13:38:58.966Z,8.53
2022-08-26T13:41:29.322Z,7.40
2022-08-26T13:43:56.644Z,7.00
2022-08-26T13:46:28.165Z,6.47
2022-08-26T13:48:55.253Z,7.40
2022-08-26T13:51:22.722Z,7.50
2022-08-26T13:53:49.990Z,6.40
2022-08-26T13:56:16.779Z,6.90
2022-08-26T13:58:43.220Z,6.10
2022-08-26T14:01:12.858Z,7.10
2022-08-26T14:03:39.459Z,6.60
2022-08-26T14:06:06.042Z,7.20
2022-08-26T14:08:32.665Z,6.13
2022-08-26T14:10:59.379Z,6.67
2022-08-26T14:13:25.976Z,6.53
2022-08-26T14:15:52.874Z,6.93
2022-08-26T14:18:22.971Z,6.80
2022-08-26T14:20:52.901Z,7.10
2022-08-26T14:23:19.471Z,7.60
2022-08-26T14:25:46.070Z,6.37
2022-08-26T14:28:12.648Z,6.87
2022-08-26T14:30:41.188Z,6.87
2022-08-26T14:33:10.654Z,5.93
2022-08-26T14:35:37.476Z,7.50
2022-08-26T14:38:03.999Z,7.07
2022-08-26T14:40:31.415Z,6.80
2022-08-26T14:43:00.663Z,7.93
2022-08-26T14:45:27.815Z,8.77
2022-08-26T14:47:56.539Z,7.70
2022-08-26T14:50:25.014Z,8.07
2022-08-26T14:53:10.418Z,7.90
2022-08-26T14:55:38.843Z,9.27
2022-08-26T14:58:05.422Z,7.63
2022-08-26T15:00:32.220Z,8.67
2022-08-26T15:02:58.983Z,7.20
2022-08-26T15:05:25.883Z,7.63
2022-08-26T15:07:52.358Z,7.90
2022-08-26T15:10:18.983Z,7.90
2022-08-26T15:12:45.556Z,7.47
2022-08-26T15:15:13.155Z,8.50
2022-08-26T15:17:39.740Z,8.03
2022-08-26T15:20:08.888Z,8.00
2022-08-26T15:22:35.809Z,9.00
2022-08-26T15:25:02.331Z,7.67
2022-08-26T15:27:28.813Z,7.70
2022-08-26T15:29:55.342Z,7.97
2022-08-26T15:32:21.874Z,7.80
2022-08-26T15:34:49.942Z,8.70
2022-08-26T15:37:16.557Z,7.63
2022-08-26T15:39:44.111Z,8.07
2022-08-26T15:42:11.601Z,7.97
2022-08-26T15:44:42.246Z,8.80
2022-08-26T15:47:08.795Z,8.60
2022-08-26T15:49:35.299Z,8.77
2022-08-26T15:52:05.165Z,9.73
2022-08-26T15:54:35.616Z,8.77
2022-08-26T15:57:02.855Z,9.17
2022-08-26T15:59:32.679Z,9.07
2022-08-26T16:02:00.330Z,8.63
2022-08-26T16:04:27.265Z,9.00
2022-08-26T16:06:54.022Z,8.90
2022-08-26T16:09:24.332Z,8.50
2022-08-26T16:11:51.042Z,9.73
2022-08-26T16:14:17.627Z,9.70
2022-08-26T16:16:44.145Z,8.30
2022-08-26T16:19:11.625Z,8.90
2022-08-26T16:21:39.421Z,8.60
2022-08-26T16:24:05.959Z,8.23
2022-08-26T16:26:34.025Z,7.30
2022-08-26T16:29:01.050Z,9.40
2022-08-26T16:31:27.640Z,8.67
2022-08-26T16:33:54.342Z,8.27
2022-08-26T16:36:20.925Z,8.10
2022-08-26T16:38:50.183Z,8.77
2022-08-26T16:41:17.099Z,8.73
2022-08-26T16:43:43.747Z,8.67
2022-08-26T16:46:11.369Z,9.20
2022-08-26T16:48:37.974Z,8.87
2022-08-26T16:51:04.528Z,9.57
2022-08-26T16:53:31.443Z,8.90
2022-08-26T16:55:58.164Z,8.60
2022-08-26T16:58:24.743Z,8.40
2022-08-26T17:00:51.203Z,8.90
2022-08-26T17:03:17.834Z,7.17
2022-08-26T17:05:44.639Z,7.40
2022-08-26T17:08:13.774Z,7.23
2022-08-26T17:13:09.560Z,8.33
2022-08-26T17:15:36.290Z,7.87
2022-08-26T17:18:02.869Z,7.70
2022-08-26T17:20:29.913Z,8.27
2022-08-26T17:22:56.917Z,7.53
2022-08-26T17:25:28.566Z,8.60
2022-08-26T17:30:23.701Z,7.70
2022-08-26T17:32:50.753Z,7.83
2022-08-26T17:35:18.505Z,8.40
2022-08-26T17:37:45.270Z,9.83
2022-08-26T17:40:13.567Z,9.10
2022-08-26T17:42:40.247Z,9.20
2022-08-26T17:45:07.270Z,9.10
2022-08-26T17:47:34.650Z,9.37
2022-08-26T17:50:01.416Z,8.47
2022-08-26T17:52:28.447Z,5.40
2022-08-26T17:54:56.432Z,4.60
2022-08-26T17:57:23.893Z,5.23
2022-08-26T17:59:51.054Z,4.90
2022-08-26T18:02:19.608Z,4.80
2022-08-26T18:04:46.274Z,4.63
2022-08-26T18:07:13.119Z,5.30
2022-08-26T18:09:39.638Z,5.73
2022-08-26T18:12:06.499Z,6.50
2022-08-26T18:14:33.815Z,5.50
2022-08-26T18:17:00.359Z,5.13
2022-08-26T18:19:27.295Z,6.83
2022-08-26T18:21:53.966Z,6.17
2022-08-26T18:24:20.554Z,5.70
2022-08-26T18:26:51.014Z,5.97
2022-08-26T18:29:19.130Z,7.00
2022-08-26T18:31:45.686Z,7.10
2022-08-26T18:34:14.332Z,6.70
2022-08-26T18:36:41.653Z,6.80
2022-08-26T18:39:08.603Z,7.70
2022-08-26T18:41:40.321Z,7.43
2022-08-26T18:44:12.977Z,7.63
2022-08-26T18:46:40.627Z,7.93
2022-08-26T18:49:08.029Z,8.23
2022-08-26T18:51:35.114Z,6.10
2022-08-26T18:54:02.890Z,7.50
2022-08-26T18:56:29.412Z,8.27
2022-08-26T18:58:56.000Z,6.97
2022-08-26T19:01:27.161Z,7.30
2022-08-26T19:03:54.711Z,8.80
2022-08-26T19:06:22.230Z,7.67
2022-08-26T19:08:49.883Z,7.17
2022-08-26T19:11:17.123Z,6.73
2022-08-26T19:13:58.675Z,8.13
2022-08-26T19:16:25.923Z,7.20
2022-08-26T19:18:53.399Z,7.30
2022-08-26T19:21:21.177Z,5.73
2022-08-26T19:23:47.979Z,6.87
2022-08-26T19:26:15.027Z,6.80
2022-08-26T19:28:41.708Z,8.40
2022-08-26T19:31:10.491Z,6.43
2022-08-26T19:33:41.906Z,5.47
2022-08-26T19:36:14.136Z,6.73
2022-08-26T19:38:42.720Z,5.90
2022-08-26T19:41:19.631Z,5.00
2022-08-26T19:43:46.615Z,6.23
2022-08-26T19:46:14.612Z,6.33
2022-08-26T19:48:43.975Z,5.40
2022-08-26T19:51:15.623Z,5.83
2022-08-26T19:53:46.321Z,6.43
2022-08-26T19:56:13.782Z,6.73
2022-08-26T19:58:40.662Z,6.67
2022-08-26T20:01:07.709Z,6.03
2022-08-26T20:03:34.894Z,6.40
2022-08-26T20:06:05.642Z,5.87
2022-08-26T20:08:32.712Z,6.30
2022-08-26T20:11:07.070Z,6.20
2022-08-26T20:13:33.604Z,6.97
2022-08-26T20:16:00.193Z,6.10
2022-08-26T20:18:45.523Z,6.20
2022-08-26T20:21:29.207Z,6.30
2022-08-26T20:23:58.239Z,6.70
2022-08-26T20:26:25.155Z,7.20
2022-08-26T20:28:51.696Z,6.53
2022-08-26T20:31:19.414Z,7.37
2022-08-26T20:33:47.094Z,7.80
2022-08-26T20:36:14.948Z,7.77
2022-08-26T20:38:41.639Z,6.83
2022-08-26T20:41:08.427Z,7.73
2022-08-26T20:43:35.102Z,8.30
2022-08-26T20:46:01.750Z,7.07
2022-08-26T20:48:28.441Z,6.80
2022-08-26T20:51:01.278Z,8.50
2022-08-26T20:53:28.643Z,7.27
2022-08-26T20:55:58.703Z,8.47
2022-08-26T20:58:25.409Z,6.60
2022-08-26T21:00:52.303Z,8.23
2022-08-26T21:03:18.892Z,7.67
2022-08-26T21:05:45.468Z,7.57
2022-08-26T21:08:12.523Z,7.73
2022-08-26T21:10:39.356Z,7.77
2022-08-26T21:13:06.400Z,7.83
2022-08-26T21:15:33.438Z,7.70
2022-08-26T21:18:00.451Z,6.80
2022-08-26T21:20:27.019Z,7.00
2022-08-26T21:22:53.554Z,7.57
2022-08-26T21:25:20.305Z,7.37
2022-08-26T21:27:47.078Z,8.37
2022-08-26T21:30:14.969Z,7.10
2022-08-26T21:32:41.610Z,7.27
2022-08-26T21:35:08.398Z,6.33
2022-08-26T21:37:34.966Z,6.90
2022-08-26T21:40:05.333Z,7.50
2022-08-26T21:42:33.415Z,7.63
2022-08-26T21:45:00.449Z,8.00
2022-08-26T21:47:27.115Z,7.80
2022-08-26T21:49:53.765Z,7.23
2022-08-26T21:52:21.349Z,7.97
2022-08-26T21:54:49.454Z,7.00
2022-08-26T21:57:16.758Z,7.33
2022-08-26T21:59:43.304Z,7.80
2022-08-26T22:02:11.038Z,7.60
2022-08-26T22:04:37.730Z,6.60
2022-08-26T22:07:04.949Z,7.77
2022-08-26T22:09:31.668Z,6.70
2022-08-26T22:11:58.860Z,6.67
2022-08-26T22:14:30.480Z,6.87
2022-08-26T22:16:58.252Z,7.00
2022-08-26T22:19:25.323Z,6.83
2022-08-26T22:21:52.964Z,7.00
2022-08-26T22:24:20.309Z,7.20
2022-08-26T22:26:47.510Z,6.83
2022-08-26T22:29:14.718Z,7.40
2022-08-26T22:31:41.950Z,6.70
2022-08-26T22:34:10.536Z,6.20
2022-08-26T22:36:43.850Z,7.13
2022-08-26T22:39:11.423Z,6.97
2022-08-26T22:41:37.991Z,7.20
2022-08-26T22:44:04.540Z,7.13
2022-08-26T22:46:32.922Z,6.60
2022-08-26T22:48:59.466Z,7.00
2022-08-26T22:51:27.836Z,6.93
2022-08-26T22:53:54.400Z,7.40
2022-08-26T22:56:21.524Z,7.00
2022-08-26T22:58:48.245Z,7.40
2022-08-26T23:01:16.962Z,6.60
2022-08-26T23:03:44.456Z,5.90
2022-08-26T23:06:11.049Z,7.30
2022-08-26T23:08:38.240Z,7.40
2022-08-26T23:11:07.762Z,7.50
2022-08-26T23:13:34.313Z,7.73
2022-08-26T23:16:05.602Z,7.63
2022-08-26T23:18:32.439Z,7.43
2022-08-26T23:20:58.958Z,7.20
2022-08-26T23:23:27.508Z,7.47
2022-08-26T23:25:54.549Z,7.67
2022-08-26T23:28:22.445Z,8.37
2022-08-26T23:30:48.990Z,6.93
2022-08-26T23:33:15.543Z,8.50
2022-08-26T23:35:42.539Z,8.90
2022-08-26T23:38:10.091Z,9.73
2022-08-26T23:40:40.491Z,8.87
2022-08-26T23:43:08.801Z,9.20
2022-08-26T23:45:35.742Z,10.23
2022-08-26T23:48:03.124Z,10.80
2022-08-26T23:50:48.861Z,11.30
2022-08-26T23:53:19.514Z,10.90
2022-08-26T23:55:50.574Z,10.73
2022-08-26T23:58:17.637Z,10.83
